sensor_id;sensor_type;location;lat;lon;timestamp;pressure;altitude;pressure_sealevel;temperature;humidity
11525;BME280;5819;49.648;8.330;2023-10-19T00:02:08;98717.84;;;11.47;100.00
11525;BME280;5819;49.648;8.330;2023-10-19T00:04:35;98707.13;;;11.62;100.00
11525;BME280;5819;49.648;8.330;2023-10-19T00:07:03;98711.47;;;11.51;100.00
11525;BME280;5819;49.648;8.330;2023-10-19T00:09:31;98702.94;;;11.49;100.00
11525;BME280;5819;49.648;8.330;2023-10-19T00:12:04;98695.34;;;11.46;100.00
11525;BME280;5819;49.648;8.330;2023-10-19T00:14:34;98693.44;;;11.48;100.00
11525;BME280;5819;49.648;8.330;2023-10-19T00:17:02;98693.06;;;11.65;100.00
11525;BME280;5819;49.648;8.330;2023-10-19T00:19:33;98696.88;;;11.48;100.00
11525;BME280;5819;49.648;8.330;2023-10-19T00:22:06;98691.56;;;11.50;100.00
11525;BME280;5819;49.648;8.330;2023-10-19T00:24:36;98698.16;;;11.66;100.00
11525;BME280;5819;49.648;8.330;2023-10-19T00:27:05;98693.94;;;11.53;100.00
11525;BME280;5819;49.648;8.330;2023-10-19T00:29:44;98693.34;;;11.49;100.00
11525;BME280;5819;49.648;8.330;2023-10-19T00:32:16;98697.63;;;11.50;100.00
11525;BME280;5819;49.648;8.330;2023-10-19T00:34:46;98691.84;;;11.58;100.00
11525;BME280;5819;49.648;8.330;2023-10-19T00:37:19;98690.63;;;11.51;100.00
11525;BME280;5819;49.648;8.330;2023-10-19T00:39:53;98693.25;;;11.51;100.00
11525;BME280;5819;49.648;8.330;2023-10-19T00:42:23;98693.13;;;11.52;100.00
11525;BME280;5819;49.648;8.330;2023-10-19T00:44:58;98688.75;;;11.53;100.00
11525;BME280;5819;49.648;8.330;2023-10-19T00:47:31;98685.00;;;11.68;100.00
11525;BME280;5819;49.648;8.330;2023-10-19T00:50:08;98692.91;;;11.55;100.00
11525;BME280;5819;49.648;8.330;2023-10-19T00:52:46;98684.97;;;11.57;100.00
11525;BME280;5819;49.648;8.330;2023-10-19T00:55:18;98689.84;;;11.61;100.00
11525;BME280;5819;49.648;8.330;2023-10-19T00:57:48;98686.13;;;11.53;100.00
11525;BME280;5819;49.648;8.330;2023-10-19T01:00:18;98681.84;;;11.52;100.00
11525;BME280;5819;49.648;8.330;2023-10-19T01:02:57;98681.16;;;11.50;100.00
11525;BME280;5819;49.648;8.330;2023-10-19T01:05:31;98681.16;;;11.50;100.00
11525;BME280;5819;49.648;8.330;2023-10-19T01:08:04;98676.56;;;11.53;100.00
11525;BME280;5819;49.648;8.330;2023-10-19T01:10:41;98667.31;;;11.49;100.00
11525;BME280;5819;49.648;8.330;2023-10-19T01:13:12;98656.78;;;11.51;100.00
11525;BME280;5819;49.648;8.330;2023-10-19T01:15:44;98659.50;;;11.49;100.00
11525;BME280;5819;49.648;8.330;2023-10-19T01:18:15;98659.88;;;11.56;100.00
11525;BME280;5819;49.648;8.330;2023-10-19T01:20:44;98655.13;;;11.50;100.00
11525;BME280;5819;49.648;8.330;2023-10-19T01:23:23;98666.47;;;11.49;100.00
11525;BME280;5819;49.648;8.330;2023-10-19T01:25:56;98669.81;;;11.51;100.00
11525;BME280;5819;49.648;8.330;2023-10-19T01:28:33;98678.47;;;11.51;100.00
11525;BME280;5819;49.648;8.330;2023-10-19T01:31:15;98674.88;;;11.52;100.00
11525;BME280;5819;49.648;8.330;2023-10-19T01:33:50;98659.75;;;11.57;100.00
11525;BME280;5819;49.648;8.330;2023-10-19T01:36:21;98662.38;;;11.57;100.00
11525;BME280;5819;49.648;8.330;2023-10-19T01:38:57;98665.72;;;11.59;100.00
11525;BME280;5819;49.648;8.330;2023-10-19T01:41:28;98654.22;;;11.62;100.00
11525;BME280;5819;49.648;8.330;2023-10-19T01:43:58;98649.94;;;11.61;100.00
11525;BME280;5819;49.648;8.330;2023-10-19T01:46:31;98647.94;;;11.64;100.00
11525;BME280;5819;49.648;8.330;2023-10-19T01:49:03;98644.25;;;11.56;100.00
11525;BME280;5819;49.648;8.330;2023-10-19T01:51:31;98649.25;;;11.59;100.00
11525;BME280;5819;49.648;8.330;2023-10-19T01:54:06;98649.25;;;11.59;100.00
11525;BME280;5819;49.648;8.330;2023-10-19T01:56:34;98642.25;;;11.59;100.00
11525;BME280;5819;49.648;8.330;2023-10-19T01:59:05;98638.69;;;11.60;100.00
11525;BME280;5819;49.648;8.330;2023-10-19T02:01:35;98633.16;;;11.65;100.00
11525;BME280;5819;49.648;8.330;2023-10-19T02:04:05;98631.63;;;11.62;100.00
11525;BME280;5819;49.648;8.330;2023-10-19T02:06:35;98630.69;;;11.63;100.00
11525;BME280;5819;49.648;8.330;2023-10-19T02:09:06;98625.66;;;11.60;100.00
11525;BME280;5819;49.648;8.330;2023-10-19T02:11:44;98630.28;;;11.57;100.00
11525;BME280;5819;49.648;8.330;2023-10-19T02:14:13;98622.72;;;11.65;100.00
11525;BME280;5819;49.648;8.330;2023-10-19T02:16:42;98630.19;;;11.58;100.00
11525;BME280;5819;49.648;8.330;2023-10-19T02:19:10;98626.41;;;11.62;100.00
11525;BME280;5819;49.648;8.330;2023-10-19T02:21:39;98621.91;;;11.64;100.00
11525;BME280;5819;49.648;8.330;2023-10-19T02:24:09;98616.44;;;11.67;100.00
11525;BME280;5819;49.648;8.330;2023-10-19T02:26:41;98609.72;;;11.65;100.00
11525;BME280;5819;49.648;8.330;2023-10-19T02:29:08;98607.41;;;11.73;100.00
11525;BME280;5819;49.648;8.330;2023-10-19T02:31:37;98610.31;;;11.68;100.00
11525;BME280;5819;49.648;8.330;2023-10-19T02:34:05;98601.91;;;11.65;100.00
11525;BME280;5819;49.648;8.330;2023-10-19T02:36:34;98597.28;;;11.68;100.00
11525;BME280;5819;49.648;8.330;2023-10-19T02:39:03;98600.38;;;11.62;100.00
11525;BME280;5819;49.648;8.330;2023-10-19T02:41:35;98606.59;;;11.60;100.00
11525;BME280;5819;49.648;8.330;2023-10-19T02:44:04;98600.69;;;11.58;100.00
11525;BME280;5819;49.648;8.330;2023-10-19T02:46:36;98612.06;;;11.57;100.00
11525;BME280;5819;49.648;8.330;2023-10-19T02:49:06;98602.97;;;11.62;100.00
11525;BME280;5819;49.648;8.330;2023-10-19T02:51:38;98604.84;;;11.60;100.00
11525;BME280;5819;49.648;8.330;2023-10-19T02:54:07;98601.91;;;11.65;100.00
11525;BME280;5819;49.648;8.330;2023-10-19T02:56:44;98605.91;;;11.58;100.00
11525;BME280;5819;49.648;8.330;2023-10-19T02:59:15;98602.47;;;11.57;100.00
11525;BME280;5819;49.648;8.330;2023-10-19T03:01:43;98613.81;;;11.56;100.00
11525;BME280;5819;49.648;8.330;2023-10-19T03:04:11;98610.28;;;11.57;100.00
11525;BME280;5819;49.648;8.330;2023-10-19T03:06:39;98613.00;;;11.56;100.00
11525;BME280;5819;49.648;8.330;2023-10-19T03:09:08;98610.28;;;11.57;100.00
11525;BME280;5819;49.648;8.330;2023-10-19T03:11:40;98601.78;;;11.55;100.00
11525;BME280;5819;49.648;8.330;2023-10-19T03:14:09;98607.78;;;11.56;100.00
11525;BME280;5819;49.648;8.330;2023-10-19T03:16:38;98610.38;;;11.56;100.00
11525;BME280;5819;49.648;8.330;2023-10-19T03:19:08;98602.72;;;11.54;100.00
11525;BME280;5819;49.648;8.330;2023-10-19T03:21:36;98608.75;;;11.55;100.00
11525;BME280;5819;49.648;8.330;2023-10-19T03:24:10;98609.44;;;11.57;100.00
11525;BME280;5819;49.648;8.330;2023-10-19T03:26:42;98599.97;;;11.56;100.00
11525;BME280;5819;49.648;8.330;2023-10-19T03:29:16;98600.19;;;11.53;100.00
11525;BME280;5819;49.648;8.330;2023-10-19T03:31:49;98588.75;;;11.55;100.00
11525;BME280;5819;49.648;8.330;2023-10-19T03:34:18;98592.06;;;11.57;100.00
11525;BME280;5819;49.648;8.330;2023-10-19T03:36:48;98582.47;;;11.58;100.00
11525;BME280;5819;49.648;8.330;2023-10-19T03:39:17;98583.06;;;11.61;100.00
11525;BME280;5819;49.648;8.330;2023-10-19T03:41:48;98572.75;;;11.60;100.00
11525;BME280;5819;49.648;8.330;2023-10-19T03:44:19;98559.97;;;11.57;100.00
11525;BME280;5819;49.648;8.330;2023-10-19T03:46:51;98574.16;;;11.53;100.00
11525;BME280;5819;49.648;8.330;2023-10-19T03:49:24;98568.84;;;11.54;100.00
11525;BME280;5819;49.648;8.330;2023-10-19T03:51:57;98564.47;;;11.55;100.00
11525;BME280;5819;49.648;8.330;2023-10-19T03:54:30;98567.09;;;11.55;100.00
11525;BME280;5819;49.648;8.330;2023-10-19T03:56:59;98558.09;;;11.59;100.00
11525;BME280;5819;49.648;8.330;2023-10-19T03:59:34;98548.88;;;11.66;100.00
11525;BME280;5819;49.648;8.330;2023-10-19T04:02:04;98553.59;;;11.61;100.00
11525;BME280;5819;49.648;8.330;2023-10-19T04:04:37;98544.94;;;11.60;100.00
11525;BME280;5819;49.648;8.330;2023-10-19T04:07:06;98541.41;;;11.61;100.00
11525;BME280;5819;49.648;8.330;2023-10-19T04:09:44;98544.09;;;11.60;100.00
11525;BME280;5819;49.648;8.330;2023-10-19T04:12:26;98546.50;;;11.63;100.00
11525;BME280;5819;49.648;8.330;2023-10-19T04:14:59;98547.44;;;11.62;100.00
11525;BME280;5819;49.648;8.330;2023-10-19T04:17:36;98548.97;;;11.64;100.00
11525;BME280;5819;49.648;8.330;2023-10-19T04:20:06;98541.06;;;11.66;100.00
11525;BME280;5819;49.648;8.330;2023-10-19T04:22:48;98546.03;;;11.69;100.00
11525;BME280;5819;49.648;8.330;2023-10-19T04:25:17;98549.47;;;11.69;100.00
11525;BME280;5819;49.648;8.330;2023-10-19T04:27:47;98553.00;;;11.68;100.00
11525;BME280;5819;49.648;8.330;2023-10-19T04:30:17;98548.53;;;11.70;100.00
11525;BME280;5819;49.648;8.330;2023-10-19T04:32:49;98548.41;;;11.72;100.00
11525;BME280;5819;49.648;8.330;2023-10-19T04:35:18;98544.97;;;11.71;100.00
11525;BME280;5819;49.648;8.330;2023-10-19T04:37:49;98546.53;;;11.74;100.00
11525;BME280;5819;49.648;8.330;2023-10-19T04:40:19;98547.47;;;11.73;100.00
11525;BME280;5819;49.648;8.330;2023-10-19T04:42:48;98538.59;;;11.76;100.00
11525;BME280;5819;49.648;8.330;2023-10-19T04:45:18;98539.44;;;11.76;100.00
11525;BME280;5819;49.648;8.330;2023-10-19T04:47:50;98540.16;;;11.78;100.00
11525;BME280;5819;49.648;8.330;2023-10-19T04:50:19;98537.56;;;11.78;100.00
11525;BME280;5819;49.648;8.330;2023-10-19T04:52:46;98543.47;;;11.80;100.00
11525;BME280;5819;49.648;8.330;2023-10-19T04:55:15;98542.28;;;11.84;100.00
11525;BME280;5819;49.648;8.330;2023-10-19T04:57:43;98539.56;;;11.86;100.00
11525;BME280;5819;49.648;8.330;2023-10-19T05:00:13;98538.97;;;11.82;100.00
11525;BME280;5819;49.648;8.330;2023-10-19T05:02:43;98538.63;;;11.87;100.00
11525;BME280;5819;49.648;8.330;2023-10-19T05:05:11;98541.34;;;11.85;100.00
11525;BME280;5819;49.648;8.330;2023-10-19T05:07:41;98536.13;;;11.85;100.00
11525;BME280;5819;49.648;8.330;2023-10-19T05:10:10;98539.56;;;11.86;100.00
11525;BME280;5819;49.648;8.330;2023-10-19T05:12:38;98547.38;;;11.86;100.00
11525;BME280;5819;49.648;8.330;2023-10-19T05:15:06;98538.84;;;11.84;100.00
11525;BME280;5819;49.648;8.330;2023-10-19T05:17:34;98539.22;;;11.90;100.00
11525;BME280;5819;49.648;8.330;2023-10-19T05:20:05;98540.41;;;11.86;100.00
11525;BME280;5819;49.648;8.330;2023-10-19T05:22:33;98535.78;;;11.90;100.00
11525;BME280;5819;49.648;8.330;2023-10-19T05:25:01;98530.09;;;11.85;100.00
11525;BME280;5819;49.648;8.330;2023-10-19T05:27:30;98533.53;;;11.85;100.00
11525;BME280;5819;49.648;8.330;2023-10-19T05:29:58;98529.38;;;11.83;100.00
11525;BME280;5819;49.648;8.330;2023-10-19T05:32:27;98527.25;;;11.88;100.00
11525;BME280;5819;49.648;8.330;2023-10-19T05:34:57;98540.50;;;11.85;100.00
11525;BME280;5819;49.648;8.330;2023-10-19T05:37:28;98535.06;;;11.88;100.00
11525;BME280;5819;49.648;8.330;2023-10-19T05:39:56;98530.69;;;11.88;100.00
11525;BME280;5819;49.648;8.330;2023-10-19T05:42:25;98524.88;;;11.85;100.00
11525;BME280;5819;49.648;8.330;2023-10-19T05:44:56;98522.88;;;11.88;100.00
11525;BME280;5819;49.648;8.330;2023-10-19T05:47:25;98529.75;;;11.89;100.00
11525;BME280;5819;49.648;8.330;2023-10-19T05:49:54;98529.84;;;11.88;100.00
11525;BME280;5819;49.648;8.330;2023-10-19T05:52:22;98534.13;;;11.89;100.00
11525;BME280;5819;49.648;8.330;2023-10-19T05:54:51;98544.44;;;11.90;100.00
11525;BME280;5819;49.648;8.330;2023-10-19T05:57:20;98528.31;;;11.96;100.00
11525;BME280;5819;49.648;8.330;2023-10-19T05:59:49;98532.09;;;11.92;100.00
11525;BME280;5819;49.648;8.330;2023-10-19T06:02:17;98534.59;;;11.94;100.00
11525;BME280;5819;49.648;8.330;2023-10-19T06:04:58;98540.66;;;11.94;100.00
11525;BME280;5819;49.648;8.330;2023-10-19T06:07:27;98541.59;;;11.93;100.00
11525;BME280;5819;49.648;8.330;2023-10-19T06:09:56;98540.66;;;11.94;100.00
11525;BME280;5819;49.648;8.330;2023-10-19T06:12:24;98548.31;;;11.96;100.00
11525;BME280;5819;49.648;8.330;2023-10-19T06:14:52;98554.03;;;12.01;100.00
11525;BME280;5819;49.648;8.330;2023-10-19T06:17:19;98547.28;;;11.98;100.00
11525;BME280;5819;49.648;8.330;2023-10-19T06:19:49;98547.88;;;12.02;100.00
11525;BME280;5819;49.648;8.330;2023-10-19T06:22:17;98543.59;;;12.01;100.00
11525;BME280;5819;49.648;8.330;2023-10-19T06:24:47;98550.47;;;12.02;100.00
11525;BME280;5819;49.648;8.330;2023-10-19T06:27:17;98558.41;;;12.00;100.00
11525;BME280;5819;49.648;8.330;2023-10-19T06:29:45;98553.44;;;11.97;100.00
11525;BME280;5819;49.648;8.330;2023-10-19T06:32:14;98555.69;;;12.02;100.00
11525;BME280;5819;49.648;8.330;2023-10-19T06:34:43;98557.34;;;12.03;100.00
11525;BME280;5819;49.648;8.330;2023-10-19T06:37:11;98544.06;;;12.06;100.00
11525;BME280;5819;49.648;8.330;2023-10-19T06:39:38;98550.22;;;12.05;100.00
11525;BME280;5819;49.648;8.330;2023-10-19T06:42:08;98543.47;;;12.13;100.00
11525;BME280;5819;49.648;8.330;2023-10-19T06:44:42;98543.47;;;12.13;100.00
11525;BME280;5819;49.648;8.330;2023-10-19T06:47:11;98543.97;;;12.18;100.00
11525;BME280;5819;49.648;8.330;2023-10-19T06:49:40;98542.28;;;12.17;100.00
11525;BME280;5819;49.648;8.330;2023-10-19T06:52:08;98548.22;;;12.19;100.00
11525;BME280;5819;49.648;8.330;2023-10-19T06:54:38;98542.28;;;12.17;100.00
11525;BME280;5819;49.648;8.330;2023-10-19T06:57:06;98544.53;;;12.22;100.00
11525;BME280;5819;49.648;8.330;2023-10-19T06:59:35;98542.63;;;12.24;100.00
11525;BME280;5819;49.648;8.330;2023-10-19T07:02:05;98543.25;;;12.28;100.00
11525;BME280;5819;49.648;8.330;2023-10-19T07:04:34;98536.22;;;12.28;100.00
11525;BME280;5819;49.648;8.330;2023-10-19T07:07:03;98533.50;;;12.30;100.00
11525;BME280;5819;49.648;8.330;2023-10-19T07:09:30;98536.00;;;12.31;100.00
11525;BME280;5819;49.648;8.330;2023-10-19T07:12:01;98533.41;;;12.31;100.00
11525;BME280;5819;49.648;8.330;2023-10-19T07:14:32;98540.84;;;12.36;100.00
11525;BME280;5819;49.648;8.330;2023-10-19T07:17:00;98538.13;;;12.37;100.00
11525;BME280;5819;49.648;8.330;2023-10-19T07:19:29;98526.63;;;12.40;100.00
11525;BME280;5819;49.648;8.330;2023-10-19T07:21:57;98538.47;;;12.44;100.00
11525;BME280;5819;49.648;8.330;2023-10-19T07:24:25;98533.25;;;12.44;100.00
11525;BME280;5819;49.648;8.330;2023-10-19T07:26:53;98541.06;;;12.44;100.00
11525;BME280;5819;49.648;8.330;2023-10-19T07:29:31;98543.31;;;12.48;100.00
11525;BME280;5819;49.648;8.330;2023-10-19T07:32:00;98540.25;;;12.54;100.00
11525;BME280;5819;49.648;8.330;2023-10-19T07:34:33;98537.88;;;12.51;100.00
11525;BME280;5819;49.648;8.330;2023-10-19T07:37:01;98533.59;;;12.50;100.00
11525;BME280;5819;49.648;8.330;2023-10-19T07:39:30;98528.50;;;12.49;100.00
11525;BME280;5819;49.648;8.330;2023-10-19T07:42:02;98524.22;;;12.48;100.00
11525;BME280;5819;49.648;8.330;2023-10-19T07:44:33;98516.41;;;12.48;100.00
11525;BME280;5819;49.648;8.330;2023-10-19T07:47:01;98515.47;;;12.49;100.00
11525;BME280;5819;49.648;8.330;2023-10-19T07:49:29;98517.22;;;12.48;100.00
11525;BME280;5819;49.648;8.330;2023-10-19T07:51:58;98522.34;;;12.50;100.00
11525;BME280;5819;49.648;8.330;2023-10-19T07:54:27;98515.22;;;12.52;100.00
11525;BME280;5819;49.648;8.330;2023-10-19T07:56:56;98515.69;;;12.57;100.00
11525;BME280;5819;49.648;8.330;2023-10-19T07:59:24;98523.88;;;12.63;100.00
11525;BME280;5819;49.648;8.330;2023-10-19T08:01:52;98535.56;;;12.69;100.00
11525;BME280;5819;49.648;8.330;2023-10-19T08:04:20;98537.13;;;12.72;100.00
11525;BME280;5819;49.648;8.330;2023-10-19T08:06:48;98530.09;;;12.72;100.00
11525;BME280;5819;49.648;8.330;2023-10-19T08:09:18;98522.88;;;12.76;100.00
11525;BME280;5819;49.648;8.330;2023-10-19T08:11:49;98523.44;;;12.79;100.00
11525;BME280;5819;49.648;8.330;2023-10-19T08:14:22;98519.75;;;12.82;100.00
11525;BME280;5819;49.648;8.330;2023-10-19T08:16:51;98520.59;;;12.82;100.00
11525;BME280;5819;49.648;8.330;2023-10-19T08:19:19;98508.44;;;12.92;100.00
11525;BME280;5819;49.648;8.330;2023-10-19T08:21:48;98505.91;;;13.02;100.00
11525;BME280;5819;49.648;8.330;2023-10-19T08:24:16;98500.06;;;13.09;100.00
11525;BME280;5819;49.648;8.330;2023-10-19T08:26:46;98507.06;;;13.09;100.00
11525;BME280;5819;49.648;8.330;2023-10-19T08:29:14;98511.44;;;13.08;100.00
11525;BME280;5819;49.648;8.330;2023-10-19T08:31:42;98500.19;;;13.08;100.00
11525;BME280;5819;49.648;8.330;2023-10-19T08:34:11;98500.94;;;13.10;100.00
11525;BME280;5819;49.648;8.330;2023-10-19T08:36:40;98502.59;;;13.11;100.00
11525;BME280;5819;49.648;8.330;2023-10-19T08:39:09;98490.78;;;13.17;100.00
11525;BME280;5819;49.648;8.330;2023-10-19T08:41:39;98498.97;;;13.23;100.00
11525;BME280;5819;49.648;8.330;2023-10-19T08:44:09;98486.59;;;13.25;100.00
11525;BME280;5819;49.648;8.330;2023-10-19T08:46:40;98490.63;;;13.29;100.00
11525;BME280;5819;49.648;8.330;2023-10-19T08:49:10;98493.16;;;13.40;100.00
11525;BME280;5819;49.648;8.330;2023-10-19T08:51:40;98487.22;;;13.59;100.00
11525;BME280;5819;49.648;8.330;2023-10-19T08:54:12;98485.09;;;13.74;100.00
11525;BME280;5819;49.648;8.330;2023-10-19T08:56:41;98474.63;;;14.04;100.00
11525;BME280;5819;49.648;8.330;2023-10-19T08:59:10;98476.03;;;14.08;100.00
11525;BME280;5819;49.648;8.330;2023-10-19T09:01:38;98463.06;;;14.06;100.00
11525;BME280;5819;49.648;8.330;2023-10-19T09:04:08;98454.28;;;14.07;100.00
11525;BME280;5819;49.648;8.330;2023-10-19T09:06:37;98454.84;;;14.11;100.00
11525;BME280;5819;49.648;8.330;2023-10-19T09:09:09;98444.78;;;14.06;100.00
11525;BME280;5819;49.648;8.330;2023-10-19T09:11:43;98442.88;;;14.18;100.00
11525;BME280;5819;49.648;8.330;2023-10-19T09:14:12;98440.31;;;14.37;100.00
11525;BME280;5819;49.648;8.330;2023-10-19T09:16:53;98430.38;;;14.31;100.00
11525;BME280;5819;49.648;8.330;2023-10-19T09:19:35;98419.22;;;14.29;100.00
11525;BME280;5819;49.648;8.330;2023-10-19T09:22:04;98422.25;;;14.34;100.00
11525;BME280;5819;49.648;8.330;2023-10-19T09:24:34;98417.47;;;14.39;100.00
11525;BME280;5819;49.648;8.330;2023-10-19T09:27:03;98418.16;;;14.41;100.00
11525;BME280;5819;49.648;8.330;2023-10-19T09:29:33;98408.41;;;14.43;100.00
11525;BME280;5819;49.648;8.330;2023-10-19T09:32:02;98402.91;;;14.56;100.00
11525;BME280;5819;49.648;8.330;2023-10-19T09:34:31;98399.84;;;14.70;100.00
11525;BME280;5819;49.648;8.330;2023-10-19T09:37:00;98399.16;;;14.68;100.00
11525;BME280;5819;49.648;8.330;2023-10-19T09:39:30;98394.06;;;14.57;100.00
11525;BME280;5819;49.648;8.330;2023-10-19T09:42:02;98388.56;;;14.79;100.00
11525;BME280;5819;49.648;8.330;2023-10-19T09:44:41;98378.88;;;14.89;100.00
11525;BME280;5819;49.648;8.330;2023-10-19T09:47:11;98383.16;;;14.90;100.00
11525;BME280;5819;49.648;8.330;2023-10-19T09:49:40;98382.59;;;14.87;100.00
11525;BME280;5819;49.648;8.330;2023-10-19T09:52:10;98375.13;;;15.02;100.00
11525;BME280;5819;49.648;8.330;2023-10-19T09:54:48;98380.66;;;14.98;100.00
11525;BME280;5819;49.648;8.330;2023-10-19T09:57:31;98378.03;;;15.08;100.00
11525;BME280;5819;49.648;8.330;2023-10-19T10:00:06;98382.97;;;15.02;100.00
11525;BME280;5819;49.648;8.330;2023-10-19T10:02:39;98379.06;;;15.25;100.00
11525;BME280;5819;49.648;8.330;2023-10-19T10:08:31;98381.94;;;15.31;100.00
11525;BME280;5819;49.648;8.330;2023-10-19T10:11:13;98371.78;;;15.28;100.00
11525;BME280;5819;49.648;8.330;2023-10-19T10:13:44;98379.47;;;15.30;100.00
11525;BME280;5819;49.648;8.330;2023-10-19T10:16:14;98376.59;;;15.23;100.00
11525;BME280;5819;49.648;8.330;2023-10-19T10:18:43;98376.06;;;15.20;100.00
11525;BME280;5819;49.648;8.330;2023-10-19T10:21:16;98373.44;;;15.20;100.00
11525;BME280;5819;49.648;8.330;2023-10-19T10:23:51;98375.63;;;15.24;100.00
11525;BME280;5819;49.648;8.330;2023-10-19T10:26:27;98378.53;;;15.21;100.00
11525;BME280;5819;49.648;8.330;2023-10-19T10:29:11;98371.09;;;15.17;100.00
11525;BME280;5819;49.648;8.330;2023-10-19T10:31:45;98375.13;;;15.11;100.00
11525;BME280;5819;49.648;8.330;2023-10-19T10:34:44;98373.47;;;15.10;100.00
11525;BME280;5819;49.648;8.330;2023-10-19T10:37:13;98377.91;;;15.00;100.00
11525;BME280;5819;49.648;8.330;2023-10-19T10:39:41;98373.75;;;14.97;100.00
11525;BME280;5819;49.648;8.330;2023-10-19T10:42:12;98382.19;;;14.91;100.00
11525;BME280;5819;49.648;8.330;2023-10-19T10:44:43;98369.94;;;14.82;100.00
11525;BME280;5819;49.648;8.330;2023-10-19T10:47:17;98367.88;;;14.86;100.00
11525;BME280;5819;49.648;8.330;2023-10-19T10:49:49;98371.84;;;14.90;100.00
11525;BME280;5819;49.648;8.330;2023-10-19T10:52:25;98370.72;;;14.92;100.00
11525;BME280;5819;49.648;8.330;2023-10-19T10:54:53;98370.06;;;14.90;100.00
11525;BME280;5819;49.648;8.330;2023-10-19T10:57:21;98383.97;;;14.91;100.00
11525;BME280;5819;49.648;8.330;2023-10-19T11:00:01;98378.88;;;14.89;100.00
11525;BME280;5819;49.648;8.330;2023-10-19T11:02:31;98380.66;;;14.89;100.00
11525;BME280;5819;49.648;8.330;2023-10-19T11:05:00;98378.75;;;14.91;100.00
11525;BME280;5819;49.648;8.330;2023-10-19T11:07:29;98371.03;;;14.89;100.00
11525;BME280;5819;49.648;8.330;2023-10-19T11:09:58;98371.59;;;14.83;100.00
11525;BME280;5819;49.648;8.330;2023-10-19T11:12:28;98372.56;;;14.82;100.00
11525;BME280;5819;49.648;8.330;2023-10-19T11:14:57;98367.44;;;14.81;100.00
11525;BME280;5819;49.648;8.330;2023-10-19T11:17:26;98370.06;;;14.81;100.00
11525;BME280;5819;49.648;8.330;2023-10-19T11:19:59;98376.53;;;14.77;100.00
11525;BME280;5819;49.648;8.330;2023-10-19T11:22:27;98366.66;;;14.71;100.00
11525;BME280;5819;49.648;8.330;2023-10-19T11:24:55;98365.94;;;14.69;100.00
11525;BME280;5819;49.648;8.330;2023-10-19T11:27:24;98363.78;;;14.64;100.00
11525;BME280;5819;49.648;8.330;2023-10-19T11:29:55;98361.56;;;14.60;100.00
11525;BME280;5819;49.648;8.330;2023-10-19T11:32:24;98359.09;;;14.58;100.00
11525;BME280;5819;49.648;8.330;2023-10-19T11:34:53;98357.28;;;14.59;100.00
11525;BME280;5819;49.648;8.330;2023-10-19T11:37:23;98353.03;;;14.58;100.00
11525;BME280;5819;49.648;8.330;2023-10-19T11:39:52;98357.97;;;14.61;100.00
11525;BME280;5819;49.648;8.330;2023-10-19T11:42:20;98340.75;;;14.58;100.00
11525;BME280;5819;49.648;8.330;2023-10-19T11:44:48;98352.91;;;14.59;100.00
11525;BME280;5819;49.648;8.330;2023-10-19T11:47:17;98345.16;;;14.58;100.00
11525;BME280;5819;49.648;8.330;2023-10-19T11:49:47;98347.38;;;14.62;100.00
11525;BME280;5819;49.648;8.330;2023-10-19T11:52:15;98344.75;;;14.62;100.00
11525;BME280;5819;49.648;8.330;2023-10-19T11:54:45;98340.22;;;14.64;100.00
11525;BME280;5819;49.648;8.330;2023-10-19T11:57:13;98340.06;;;14.66;100.00
11525;BME280;5819;49.648;8.330;2023-10-19T11:59:41;98340.75;;;14.68;100.00
11525;BME280;5819;49.648;8.330;2023-10-19T12:02:11;98346.84;;;14.68;100.00
11525;BME280;5819;49.648;8.330;2023-10-19T12:04:39;98336.38;;;14.68;100.00
11525;BME280;5819;49.648;8.330;2023-10-19T12:07:07;98334.41;;;14.70;100.00
11525;BME280;5819;49.648;8.330;2023-10-19T12:09:35;98330.13;;;14.69;100.00
11525;BME280;5819;49.648;8.330;2023-10-19T12:12:05;98330.84;;;14.71;100.00
11525;BME280;5819;49.648;8.330;2023-10-19T12:14:33;98334.41;;;14.70;100.00
11525;BME280;5819;49.648;8.330;2023-10-19T12:17:01;98342.41;;;14.69;100.00
11525;BME280;5819;49.648;8.330;2023-10-19T12:19:30;98338.00;;;14.69;100.00
11525;BME280;5819;49.648;8.330;2023-10-19T12:22:00;98347.63;;;14.69;100.00
11525;BME280;5819;49.648;8.330;2023-10-19T12:24:29;98347.63;;;14.69;100.00
11525;BME280;5819;49.648;8.330;2023-10-19T12:26:57;98346.53;;;14.71;100.00
11525;BME280;5819;49.648;8.330;2023-10-19T12:29:27;98349.16;;;14.62;100.00
11525;BME280;5819;49.648;8.330;2023-10-19T12:31:54;98352.72;;;14.61;100.00
11525;BME280;5819;49.648;8.330;2023-10-19T12:34:23;98348.75;;;14.57;100.00
11525;BME280;5819;49.648;8.330;2023-10-19T12:36:51;98347.13;;;14.56;100.00
11525;BME280;5819;49.648;8.330;2023-10-19T12:39:19;98345.59;;;14.53;100.00
11525;BME280;5819;49.648;8.330;2023-10-19T12:42:01;98339.09;;;14.57;100.00
11525;BME280;5819;49.648;8.330;2023-10-19T12:44:33;98333.47;;;14.62;100.00
11525;BME280;5819;49.648;8.330;2023-10-19T12:47:06;98318.72;;;14.70;100.00
11525;BME280;5819;49.648;8.330;2023-10-19T12:49:37;98316.91;;;14.80;100.00
11525;BME280;5819;49.648;8.330;2023-10-19T12:52:06;98309.06;;;14.80;100.00
11525;BME280;5819;49.648;8.330;2023-10-19T12:54:35;98313.84;;;14.85;100.00
11525;BME280;5819;49.648;8.330;2023-10-19T12:57:04;98319.63;;;14.88;100.00
11525;BME280;5819;49.648;8.330;2023-10-19T12:59:36;98325.25;;;14.93;100.00
11525;BME280;5819;49.648;8.330;2023-10-19T13:02:05;98312.00;;;15.05;100.00
11525;BME280;5819;49.648;8.330;2023-10-19T13:04:35;98324.00;;;15.07;100.00
11525;BME280;5819;49.648;8.330;2023-10-19T13:07:07;98323.84;;;15.09;100.00
11525;BME280;5819;49.648;8.330;2023-10-19T13:09:41;98329.22;;;15.07;100.00
11525;BME280;5819;49.648;8.330;2023-10-19T13:12:11;98318.88;;;15.06;100.00
11525;BME280;5819;49.648;8.330;2023-10-19T13:14:41;98321.31;;;15.17;100.00
11525;BME280;5819;49.648;8.330;2023-10-19T13:17:11;98327.44;;;15.08;100.00
11525;BME280;5819;49.648;8.330;2023-10-19T13:19:39;98323.84;;;15.09;100.00
11525;BME280;5819;49.648;8.330;2023-10-19T13:22:08;98324.66;;;15.09;100.00